Time;durP1;ratioP1;P1;durP2;ratioP2;P2;SDS_P1;SDS_P2;PMS_P1;PMS_P2;Temp;Humidity;BMP_temperature;BMP_pressure;BME280_temperature;BME280_humidity;BME280_pressure;Samples;Min_cycle;Max_cycle;Signal;HPM_P1;HPM_P2
2023/02/18 00:01:10;;;;;;;0.80;0.80;;;;;;;12.04;87.95;99043.03;5050702;28;20250;-76
2023/02/18 00:03:36;;;;;;;0.80;0.80;;;;;;;12.09;87.08;99046.25;5050677;28;20230;-76
2023/02/18 00:06:11;;;;;;;1.30;1.00;;;;;;;12.10;87.23;99040.03;5051473;28;20220;-76
2023/02/18 00:08:37;;;;;;;2.00;1.00;;;;;;;12.08;87.21;99047.19;5054357;28;20211;-76
2023/02/18 00:11:05;;;;;;;1.00;0.90;;;;;;;12.09;87.60;99031.22;5054511;28;20225;-76
2023/02/18 00:13:33;;;;;;;0.73;0.73;;;;;;;12.11;87.37;99044.38;5054393;28;20216;-76
2023/02/18 00:16:01;;;;;;;1.20;1.00;;;;;;;12.09;87.28;99046.25;5054281;28;20229;-76
2023/02/18 00:18:28;;;;;;;1.03;0.90;;;;;;;12.07;87.78;99042.84;5054074;28;20260;-75
2023/02/18 00:20:54;;;;;;;1.40;0.90;;;;;;;12.03;88.33;99046.63;5071358;22;20237;-83
2023/02/18 00:23:21;;;;;;;0.83;0.83;;;;;;;12.05;88.39;99044.75;5078555;28;20209;-84
2023/02/18 00:25:47;;;;;;;1.67;0.90;;;;;;;12.06;87.82;99042.00;5080034;28;20689;-84
2023/02/18 00:28:14;;;;;;;1.57;1.10;;;;;;;12.11;87.50;99049.69;5079555;28;20210;-84
2023/02/18 00:30:42;;;;;;;1.80;1.00;;;;;;;12.06;87.77;99042.00;5075027;28;20210;-83
2023/02/18 00:33:08;;;;;;;0.80;0.80;;;;;;;12.04;87.97;99040.41;5057749;28;20564;-83
2023/02/18 00:35:35;;;;;;;1.90;0.90;;;;;;;11.99;88.26;99039.81;5057988;28;20216;-83
2023/02/18 00:38:02;;;;;;;0.97;0.97;;;;;;;12.00;88.65;99039.72;5054957;28;20226;-84
2023/02/18 00:40:28;;;;;;;1.00;0.90;;;;;;;11.96;88.97;99032.91;5056653;28;20222;-83
2023/02/18 00:42:54;;;;;;;0.90;0.90;;;;;;;11.99;88.26;99014.16;5058578;28;20238;-84
2023/02/18 00:45:21;;;;;;;1.13;1.07;;;;;;;11.99;88.96;99013.31;5057875;28;20215;-84
2023/02/18 00:47:49;;;;;;;2.10;1.00;;;;;;;11.98;88.90;99008.97;5058169;28;20210;-84
2023/02/18 00:50:15;;;;;;;1.53;0.90;;;;;;;11.99;88.91;99005.38;5057937;28;20685;-84
2023/02/18 00:52:42;;;;;;;1.07;0.80;;;;;;;11.95;88.94;98995.91;5057538;28;20238;-85
2023/02/18 00:55:08;;;;;;;1.47;0.97;;;;;;;11.92;88.77;99006.69;5055031;28;20215;-84
2023/02/18 00:57:35;;;;;;;0.80;0.80;;;;;;;11.89;89.45;99014.81;5054444;28;20210;-84
2023/02/18 01:00:01;;;;;;;1.00;0.90;;;;;;;11.87;89.29;99019.38;5054994;28;20204;-84
2023/02/18 01:02:27;;;;;;;0.90;0.90;;;;;;;11.83;89.60;99018.69;5055310;28;20261;-84
2023/02/18 01:04:55;;;;;;;0.77;0.77;;;;;;;11.86;89.70;99020.31;5056349;28;20210;-84
2023/02/18 01:07:22;;;;;;;1.13;0.90;;;;;;;11.84;89.43;99016.88;5055141;28;20208;-84
2023/02/18 01:09:48;;;;;;;1.30;1.10;;;;;;;11.86;88.84;99017.66;5054918;28;20665;-84
2023/02/18 01:12:15;;;;;;;1.10;1.00;;;;;;;11.88;88.72;99021.06;5055507;28;20238;-84
2023/02/18 01:14:47;;;;;;;1.17;1.07;;;;;;;11.91;88.49;99015.56;5054959;28;20218;-84
2023/02/18 01:17:14;;;;;;;1.23;1.13;;;;;;;11.94;88.63;99020.69;5054374;28;20217;-84
2023/02/18 01:19:40;;;;;;;2.50;1.10;;;;;;;11.95;88.14;99014.44;5054872;28;20243;-83
2023/02/18 01:22:08;;;;;;;1.63;1.53;;;;;;;11.94;88.60;99015.41;5054880;28;20236;-84
2023/02/18 01:24:35;;;;;;;1.53;1.37;;;;;;;11.94;88.66;99015.41;5054762;28;20210;-84
2023/02/18 01:27:01;;;;;;;2.13;1.20;;;;;;;11.94;88.58;99020.69;5054717;28;20218;-83
2023/02/18 01:29:27;;;;;;;1.60;1.50;;;;;;;11.93;88.78;99003.09;5054749;28;20212;-83
2023/02/18 01:31:54;;;;;;;1.73;1.40;;;;;;;11.99;88.66;99000.06;5055502;28;20237;-84
2023/02/18 01:34:20;;;;;;;1.87;1.30;;;;;;;11.97;89.15;98999.28;5055851;28;20221;-84
2023/02/18 01:36:47;;;;;;;1.40;1.27;;;;;;;11.93;89.20;99008.41;5055825;28;20293;-84
2023/02/18 01:39:15;;;;;;;1.37;1.27;;;;;;;11.88;89.56;99011.34;5055417;28;20239;-84
2023/02/18 01:41:41;;;;;;;1.30;1.20;;;;;;;11.83;89.83;99012.53;5055268;28;20682;-84
2023/02/18 01:44:16;;;;;;;1.73;1.20;;;;;;;11.76;90.04;99011.22;5055319;28;20211;-84
2023/02/18 01:46:42;;;;;;;1.23;1.13;;;;;;;11.76;89.95;99005.91;5055021;28;20233;-83
2023/02/18 01:49:12;;;;;;;1.63;1.53;;;;;;;11.66;90.50;99004.75;5054877;28;20204;-84
2023/02/18 01:51:41;;;;;;;1.53;1.20;;;;;;;11.56;90.95;99006.22;5054340;28;20242;-84
2023/02/18 01:54:12;;;;;;;1.10;1.00;;;;;;;11.50;91.72;99012.72;5054156;28;20212;-84
2023/02/18 01:56:45;;;;;;;1.50;1.30;;;;;;;11.45;92.68;99016.59;5053838;28;20555;-84
2023/02/18 01:59:14;;;;;;;2.07;1.27;;;;;;;11.51;92.42;99010.94;5053780;28;20235;-84
2023/02/18 02:01:43;;;;;;;1.40;1.30;;;;;;;11.48;92.73;99005.81;5053799;28;20233;-83
2023/02/18 02:04:10;;;;;;;1.50;1.27;;;;;;;11.51;92.80;99006.50;5054409;28;20230;-83
2023/02/18 02:06:37;;;;;;;1.50;1.23;;;;;;;11.56;91.98;98998.28;5054525;28;20212;-83
2023/02/18 02:09:07;;;;;;;1.30;1.10;;;;;;;11.63;91.96;98999.66;5053907;28;20704;-83
2023/02/18 02:12:14;;;;;;;1.63;1.53;;;;;;;11.63;91.59;98997.00;5054522;28;20257;-84
2023/02/18 02:15:03;;;;;;;1.47;1.37;;;;;;;11.63;91.73;99002.28;5053983;28;20213;-83
2023/02/18 02:17:45;;;;;;;1.50;1.40;;;;;;;11.63;91.72;99000.47;5054394;28;20228;-84
2023/02/18 02:21:03;;;;;;;1.57;1.47;;;;;;;11.65;91.71;99003.91;5053971;28;20228;-84
2023/02/18 02:23:50;;;;;;;1.83;1.40;;;;;;;11.65;91.87;98998.63;5053467;28;20275;-84
2023/02/18 02:26:52;;;;;;;1.50;1.20;;;;;;;11.63;91.38;98994.34;5053188;28;20215;-84
2023/02/18 02:29:46;;;;;;;1.53;1.43;;;;;;;11.64;90.71;98986.31;5052871;28;20400;-84
2023/02/18 02:32:53;;;;;;;2.03;1.57;;;;;;;11.63;91.30;98983.75;5053411;28;20322;-84
2023/02/18 02:35:24;;;;;;;1.90;1.60;;;;;;;11.62;91.43;98987.34;5046589;28;20213;-84
2023/02/18 02:37:59;;;;;;;1.57;1.47;;;;;;;11.62;91.48;98977.59;5052877;28;20219;-84
2023/02/18 02:40:33;;;;;;;1.97;1.60;;;;;;;11.60;91.65;98978.63;5052487;28;20206;-83
2023/02/18 02:43:07;;;;;;;2.10;1.60;;;;;;;11.57;91.70;98973.50;5052794;28;20588;-83
2023/02/18 02:45:43;;;;;;;2.83;1.70;;;;;;;11.54;91.68;98971.03;5052261;28;20593;-84
2023/02/18 02:48:17;;;;;;;1.67;1.57;;;;;;;11.54;92.11;98981.63;5051962;28;20226;-84
2023/02/18 02:50:50;;;;;;;1.90;1.60;;;;;;;11.50;92.03;98977.47;5051757;28;20244;-84
2023/02/18 02:53:22;;;;;;;2.37;1.50;;;;;;;11.51;91.83;98973.88;5052010;28;20214;-84
2023/02/18 02:55:48;;;;;;;1.60;1.30;;;;;;;11.52;91.40;98959.69;5052015;28;20210;-84
2023/02/18 02:58:17;;;;;;;1.60;1.50;;;;;;;11.56;91.31;98958.56;5051294;28;20210;-84
2023/02/18 03:00:57;;;;;;;1.47;1.37;;;;;;;11.55;91.07;98964.81;5051810;28;20230;-83
2023/02/18 03:03:47;;;;;;;2.60;1.60;;;;;;;11.54;90.89;98957.78;5052007;28;20207;-84
2023/02/18 03:06:28;;;;;;;2.00;1.67;;;;;;;11.55;90.60;98954.22;5051924;28;20214;-84
2023/02/18 03:09:04;;;;;;;1.50;1.40;;;;;;;11.51;90.93;98955.34;5052050;28;20200;-83
2023/02/18 03:11:37;;;;;;;1.80;1.70;;;;;;;11.48;90.74;98960.78;5052182;28;20238;-84
2023/02/18 03:14:11;;;;;;;1.47;1.37;;;;;;;11.50;90.50;98948.34;5051810;28;20681;-84
2023/02/18 03:16:45;;;;;;;2.00;1.47;;;;;;;11.49;90.53;98949.28;5051688;28;20209;-84
2023/02/18 03:19:18;;;;;;;2.93;1.70;;;;;;;11.47;90.85;98941.44;5051594;28;20226;-82
2023/02/18 03:21:51;;;;;;;1.50;1.40;;;;;;;11.45;90.92;98942.47;5051219;28;20748;-83
2023/02/18 03:24:23;;;;;;;1.90;1.80;;;;;;;11.43;91.38;98941.72;5053070;28;20286;-84
2023/02/18 03:26:54;;;;;;;2.03;1.70;;;;;;;11.38;91.52;98943.78;5055132;28;20221;-84
2023/02/18 03:29:22;;;;;;;1.67;1.53;;;;;;;11.34;91.41;98939.59;5055465;28;20294;-84
2023/02/18 03:31:54;;;;;;;1.70;1.53;;;;;;;11.33;92.16;98944.06;5055308;28;20256;-84
2023/02/18 03:34:25;;;;;;;1.87;1.53;;;;;;;11.25;92.38;98940.16;5054723;28;20225;-84
2023/02/18 03:36:53;;;;;;;2.17;1.77;;;;;;;11.24;92.77;98935.78;5054841;28;20219;-84
2023/02/18 03:39:23;;;;;;;1.70;1.60;;;;;;;11.16;93.00;98943.34;5055548;28;20239;-84
2023/02/18 03:41:49;;;;;;;2.70;1.63;;;;;;;11.16;93.12;98935.41;5061241;28;20237;-84
2023/02/18 03:44:16;;;;;;;1.80;1.70;;;;;;;11.24;92.62;98927.84;5064525;28;20208;-83
2023/02/18 03:46:44;;;;;;;1.90;1.70;;;;;;;11.23;92.47;98927.00;5062943;28;20216;-84
2023/02/18 03:49:11;;;;;;;2.13;1.93;;;;;;;11.30;91.89;98932.78;5062096;28;20210;-84
2023/02/18 03:51:37;;;;;;;2.07;1.77;;;;;;;11.35;90.81;98928.94;5062765;28;20737;-84
2023/02/18 03:54:05;;;;;;;2.40;1.60;;;;;;;11.40;90.64;98933.94;5062298;28;20211;-84
2023/02/18 03:56:32;;;;;;;1.90;1.70;;;;;;;11.41;90.33;98933.00;5060938;28;20214;-83
2023/02/18 03:58:58;;;;;;;2.13;1.90;;;;;;;11.41;90.29;98935.63;5060113;28;20227;-84
2023/02/18 04:01:25;;;;;;;1.87;1.73;;;;;;;11.36;90.14;98929.75;5060391;28;20237;-84
2023/02/18 04:03:51;;;;;;;2.00;1.80;;;;;;;11.24;91.18;98930.50;5059876;28;20215;-84
2023/02/18 04:06:18;;;;;;;1.80;1.63;;;;;;;11.15;91.62;98939.00;5059322;28;20227;-84
2023/02/18 04:08:44;;;;;;;2.10;1.73;;;;;;;11.01;92.57;98939.78;5058214;28;20207;-84
2023/02/18 04:11:12;;;;;;;2.17;1.80;;;;;;;10.93;92.58;98941.16;5058248;28;20233;-84
2023/02/18 04:13:39;;;;;;;2.03;1.83;;;;;;;10.83;93.23;98942.66;5058274;28;20216;-84
2023/02/18 04:16:06;;;;;;;2.03;1.63;;;;;;;10.76;93.68;98934.22;5058287;28;20304;-84
2023/02/18 04:18:32;;;;;;;2.33;1.60;;;;;;;10.63;94.35;98937.63;5059148;28;20209;-84
2023/02/18 04:20:59;;;;;;;2.47;1.60;;;;;;;10.52;95.16;98925.03;5059849;28;20240;-84
2023/02/18 04:23:25;;;;;;;1.90;1.60;;;;;;;10.41;95.71;98924.78;5059834;28;20213;-84
2023/02/18 04:25:52;;;;;;;1.73;1.63;;;;;;;10.35;96.67;98932.22;5059218;28;20693;-84
2023/02/18 04:28:20;;;;;;;2.40;1.80;;;;;;;10.27;97.26;98926.50;5058818;28;20226;-84
2023/02/18 04:30:47;;;;;;;1.70;1.60;;;;;;;10.19;97.98;98933.97;5058955;28;20225;-84
2023/02/18 04:33:15;;;;;;;1.97;1.80;;;;;;;10.25;98.27;98933.63;5058761;28;20208;-84
2023/02/18 04:35:41;;;;;;;2.00;1.80;;;;;;;10.34;98.42;98938.44;5057669;28;20216;-84
2023/02/18 04:38:08;;;;;;;2.43;1.80;;;;;;;10.44;97.76;98934.31;5058298;28;20214;-84
2023/02/18 04:40:35;;;;;;;2.40;1.57;;;;;;;10.52;97.54;98937.41;5058427;28;20702;-83
2023/02/18 04:43:01;;;;;;;1.63;1.53;;;;;;;10.58;97.17;98943.19;5059078;28;20306;-84
2023/02/18 04:45:29;;;;;;;2.60;1.80;;;;;;;10.62;96.62;98941.22;5058882;28;20207;-84
2023/02/18 04:47:56;;;;;;;1.77;1.67;;;;;;;10.59;96.83;98946.69;5058430;28;20226;-84
2023/02/18 04:50:22;;;;;;;3.73;1.83;;;;;;;10.57;96.78;98935.34;5058776;28;20217;-83
2023/02/18 04:52:50;;;;;;;1.53;1.43;;;;;;;10.46;97.09;98943.03;5058095;28;20212;-84
2023/02/18 04:55:16;;;;;;;1.20;1.10;;;;;;;10.41;97.30;98945.06;5058666;28;20214;-84
2023/02/18 04:57:43;;;;;;;1.67;1.57;;;;;;;10.25;98.24;98945.06;5058777;28;20209;-84
2023/02/18 05:00:13;;;;;;;2.37;1.60;;;;;;;10.15;98.86;98948.31;5058800;28;20238;-84
2023/02/18 05:02:41;;;;;;;2.10;1.60;;;;;;;10.11;99.20;98945.00;5059253;28;20239;-84
2023/02/18 05:05:08;;;;;;;1.97;1.30;;;;;;;10.16;98.79;98950.00;5058879;28;20219;-84
2023/02/18 05:07:35;;;;;;;1.97;1.33;;;;;;;10.11;99.07;98958.19;5058931;28;20217;-84
2023/02/18 05:10:01;;;;;;;1.70;1.60;;;;;;;10.10;98.94;98955.63;5058693;28;20202;-84
2023/02/18 05:12:28;;;;;;;1.57;1.47;;;;;;;10.09;98.92;98959.22;5059214;28;20472;-84
2023/02/18 05:14:54;;;;;;;1.90;1.60;;;;;;;10.05;99.21;98957.66;5058391;28;20215;-84
2023/02/18 05:17:21;;;;;;;1.60;1.50;;;;;;;10.06;99.13;98960.22;5057315;28;20219;-84
2023/02/18 05:19:48;;;;;;;2.67;1.20;;;;;;;10.05;99.03;98955.03;5057524;28;20238;-84
2023/02/18 05:22:15;;;;;;;1.40;1.30;;;;;;;10.05;99.29;98950.59;5057494;28;20716;-84
2023/02/18 05:24:41;;;;;;;1.57;1.47;;;;;;;10.08;98.86;98941.63;5057274;28;20658;-84
2023/02/18 05:27:08;;;;;;;1.50;1.40;;;;;;;10.08;98.75;98942.50;5058143;28;20212;-83
2023/02/18 05:29:34;;;;;;;1.67;1.30;;;;;;;10.13;98.44;98942.25;5058096;28;20222;-84
2023/02/18 05:32:01;;;;;;;1.43;1.33;;;;;;;10.13;98.36;98943.09;5057858;28;20616;-84
2023/02/18 05:34:27;;;;;;;1.50;1.40;;;;;;;10.12;98.32;98937.91;5055875;28;20290;-83
2023/02/18 05:36:55;;;;;;;1.87;1.30;;;;;;;10.10;98.43;98934.50;5055883;28;20212;-83
2023/02/18 05:39:22;;;;;;;1.63;1.43;;;;;;;10.07;98.66;98935.50;5056228;28;20737;-83
2023/02/18 05:41:48;;;;;;;1.30;1.13;;;;;;;10.04;99.04;98942.75;5056508;28;20235;-83
2023/02/18 05:44:29;;;;;;;2.13;1.37;;;;;;;10.03;98.93;98943.66;5056075;28;20219;-83
2023/02/18 05:46:56;;;;;;;1.20;1.10;;;;;;;9.91;99.63;98945.16;5055415;28;20632;-83
2023/02/18 05:49:23;;;;;;;1.20;1.10;;;;;;;9.88;100.00;98941.81;5055875;28;20204;-82
2023/02/18 05:51:49;;;;;;;1.53;1.27;;;;;;;9.87;100.00;98942.78;5055097;28;20598;-84
2023/02/18 05:54:17;;;;;;;1.87;1.30;;;;;;;9.94;100.00;98938.88;5056337;28;20208;-84
2023/02/18 05:56:43;;;;;;;2.80;1.40;;;;;;;9.98;99.95;98935.13;5060058;28;20679;-85
2023/02/18 05:59:10;;;;;;;1.67;1.20;;;;;;;9.96;99.89;98939.63;5059839;28;20232;-82
2023/02/18 06:01:37;;;;;;;1.77;1.43;;;;;;;9.95;100.00;98940.56;5063505;28;20236;-83
2023/02/18 06:04:03;;;;;;;2.43;1.20;;;;;;;9.98;100.00;98943.88;5056068;28;20227;-83
2023/02/18 06:06:30;;;;;;;1.50;1.40;;;;;;;10.00;100.00;98926.19;5059818;28;20210;-83
2023/02/18 06:08:56;;;;;;;2.73;1.30;;;;;;;10.01;100.00;98927.88;5065693;28;20218;-82
2023/02/18 06:11:24;;;;;;;3.20;1.30;;;;;;;9.99;100.00;98926.25;5066279;28;20237;-83
2023/02/18 06:13:50;;;;;;;1.30;1.20;;;;;;;9.98;100.00;98940.41;5063208;28;20468;-83
2023/02/18 06:16:17;;;;;;;1.30;1.20;;;;;;;9.99;100.00;98950.91;5055791;28;20205;-83
2023/02/18 06:18:43;;;;;;;1.60;1.20;;;;;;;10.02;100.00;98955.13;5055110;28;20231;-82
2023/02/18 06:21:10;;;;;;;1.40;1.30;;;;;;;10.07;100.00;98951.38;5067763;22;20224;-82
2023/02/18 06:23:36;;;;;;;1.47;1.33;;;;;;;10.08;100.00;98957.47;5032538;28;20237;-81
2023/02/18 06:26:03;;;;;;;1.90;1.47;;;;;;;10.07;100.00;98951.38;5032545;28;20212;-81
2023/02/18 06:28:31;;;;;;;1.80;1.40;;;;;;;9.99;100.00;98947.38;5032117;28;20214;-81
2023/02/18 06:30:57;;;;;;;3.43;1.77;;;;;;;9.88;100.00;98939.19;5032001;28;20213;-81
2023/02/18 06:33:24;;;;;;;1.40;1.30;;;;;;;9.81;100.00;98937.81;5032382;28;20238;-82
2023/02/18 06:35:55;;;;;;;1.77;1.30;;;;;;;9.78;100.00;98943.28;5032401;28;20216;-82
2023/02/18 06:38:21;;;;;;;2.37;1.30;;;;;;;9.76;100.00;98939.84;5032032;28;20221;-83
2023/02/18 06:40:48;;;;;;;1.30;1.20;;;;;;;9.79;100.00;98939.69;5032050;28;20607;-82
2023/02/18 06:43:15;;;;;;;1.20;1.10;;;;;;;9.83;100.00;98941.22;5032052;28;20216;-83
2023/02/18 06:45:43;;;;;;;1.20;1.10;;;;;;;9.88;100.00;98944.47;5031944;28;20215;-81
2023/02/18 06:48:09;;;;;;;1.30;1.20;;;;;;;9.93;100.00;98942.44;5031503;28;20210;-81
2023/02/18 06:50:36;;;;;;;1.70;1.30;;;;;;;9.99;100.00;98936.81;5032135;28;20213;-81
2023/02/18 06:53:03;;;;;;;1.40;1.30;;;;;;;10.05;100.00;98947.09;5031819;28;20228;-82
2023/02/18 06:55:29;;;;;;;2.10;1.30;;;;;;;10.12;100.00;98944.03;5031942;28;20219;-82
2023/02/18 06:57:56;;;;;;;2.63;1.50;;;;;;;10.10;100.00;98935.34;5031480;28;20222;-82
2023/02/18 07:00:22;;;;;;;1.30;1.20;;;;;;;10.17;100.00;98941.16;5031902;28;20593;-82
2023/02/18 07:02:50;;;;;;;1.97;1.30;;;;;;;10.18;100.00;98946.34;5031594;28;20236;-81
2023/02/18 07:05:17;;;;;;;2.03;1.40;;;;;;;10.19;100.00;98942.78;5031989;28;20219;-83
2023/02/18 07:07:43;;;;;;;1.50;1.40;;;;;;;10.27;100.00;98932.63;5031697;28;20211;-83
2023/02/18 07:10:10;;;;;;;2.00;1.30;;;;;;;10.26;100.00;98930.94;5031983;28;20213;-82
2023/02/18 07:12:37;;;;;;;3.20;1.63;;;;;;;10.31;100.00;98928.03;5031732;28;20611;-82
2023/02/18 07:15:04;;;;;;;1.70;1.60;;;;;;;10.38;100.00;98930.25;5031335;28;20215;-84
2023/02/18 07:17:30;;;;;;;1.57;1.47;;;;;;;10.38;100.00;98929.38;5031414;28;20706;-84
2023/02/18 07:19:59;;;;;;;2.63;1.57;;;;;;;10.37;100.00;98928.53;5031696;28;20324;-81
2023/02/18 07:22:26;;;;;;;1.30;1.20;;;;;;;10.43;100.00;98937.91;5031382;28;20280;-81
2023/02/18 07:24:53;;;;;;;3.10;1.40;;;;;;;10.44;100.00;98929.03;5031613;28;20676;-84
2023/02/18 07:27:20;;;;;;;2.40;1.40;;;;;;;10.52;100.00;98921.56;5031957;28;20598;-84
2023/02/18 07:29:47;;;;;;;3.53;1.40;;;;;;;10.55;100.00;98932.81;5039252;28;20206;-84
2023/02/18 07:32:15;;;;;;;2.27;1.37;;;;;;;10.61;100.00;98918.38;5031738;28;20231;-84
2023/02/18 07:34:42;;;;;;;1.33;1.20;;;;;;;10.68;100.00;98906.50;5031518;28;20692;-84
2023/02/18 07:37:11;;;;;;;1.27;1.10;;;;;;;10.76;100.00;98907.78;5031302;28;20222;-85
2023/02/18 07:39:40;;;;;;;1.30;1.20;;;;;;;10.80;99.43;98905.78;5031400;28;20214;-86
2023/02/18 07:42:07;;;;;;;1.50;1.30;;;;;;;10.86;99.23;98901.03;5031219;28;20262;-85
2023/02/18 07:44:33;;;;;;;1.30;1.20;;;;;;;10.92;98.71;98894.50;5032291;28;20225;-85
2023/02/18 07:47:00;;;;;;;1.20;1.10;;;;;;;11.01;98.34;98893.97;5031109;28;20216;-86
2023/02/18 07:49:27;;;;;;;1.60;1.40;;;;;;;11.04;97.65;98893.78;5031497;28;20215;-86
2023/02/18 07:51:53;;;;;;;1.95;1.45;;;;;;;11.10;97.09;98886.34;5031375;28;20445;-87
2023/02/18 07:54:21;;;;;;;1.58;1.48;;;;;;;11.23;96.42;98889.97;5029451;28;20441;-89
2023/02/18 07:56:48;;;;;;;1.30;1.20;;;;;;;11.29;95.38;98886.09;5029421;28;20578;-89
2023/02/18 07:59:15;;;;;;;1.63;1.27;;;;;;;11.36;95.21;98875.06;5033264;28;20234;-89
2023/02/18 08:01:41;;;;;;;1.40;1.30;;;;;;;11.36;94.72;98885.63;5031357;28;20266;-86
2023/02/18 08:04:08;;;;;;;2.03;1.10;;;;;;;11.38;93.41;98877.63;5031846;28;20213;-87
2023/02/18 08:06:37;;;;;;;1.80;1.40;;;;;;;11.48;92.80;98881.38;5031672;28;20209;-87
2023/02/18 08:09:04;;;;;;;1.37;1.27;;;;;;;11.47;92.55;98877.91;5031727;28;20205;-84
2023/02/18 08:11:33;;;;;;;1.30;1.20;;;;;;;11.55;92.19;98885.38;5031502;28;20224;-84
2023/02/18 08:14:00;;;;;;;1.50;1.40;;;;;;;11.53;91.83;98881.97;5031702;28;20766;-78
2023/02/18 08:16:27;;;;;;;1.95;1.52;;;;;;;11.59;91.94;98886.91;5031138;28;20820;-89
2023/02/18 08:18:54;;;;;;;2.30;1.40;;;;;;;11.60;91.82;98884.19;5031802;28;20212;-83
2023/02/18 08:21:23;;;;;;;2.10;1.50;;;;;;;11.61;91.95;98885.88;5031147;28;20230;-84
2023/02/18 08:23:50;;;;;;;2.10;1.37;;;;;;;11.66;92.12;98890.88;5029916;28;20221;-84
2023/02/18 08:26:16;;;;;;;2.97;1.50;;;;;;;11.72;90.61;98874.63;5031440;28;20209;-84
2023/02/18 08:28:45;;;;;;;1.77;1.50;;;;;;;11.74;89.23;98878.03;5033573;28;20204;-86
2023/02/18 08:31:17;;;;;;;1.80;1.50;;;;;;;11.88;87.67;98867.44;5034784;28;20257;-85
2023/02/18 08:33:43;;;;;;;3.33;1.57;;;;;;;11.97;85.94;98862.41;5034787;28;20217;-84
2023/02/18 08:36:10;;;;;;;2.67;1.70;;;;;;;12.04;84.84;98857.56;5033088;28;20223;-83
2023/02/18 08:38:36;;;;;;;1.60;1.50;;;;;;;12.15;84.54;98857.72;5034311;28;20226;-82
2023/02/18 08:41:05;;;;;;;1.50;1.40;;;;;;;12.23;82.95;98853.63;5035020;28;20255;-85
2023/02/18 08:43:32;;;;;;;1.50;1.40;;;;;;;12.31;83.10;98855.78;5034842;28;20211;-84
2023/02/18 08:46:00;;;;;;;2.53;1.40;;;;;;;12.32;83.70;98853.06;5034249;28;20211;-83
2023/02/18 08:48:27;;;;;;;1.73;1.63;;;;;;;12.34;83.87;98847.66;5033109;28;20212;-84
2023/02/18 08:50:54;;;;;;;2.50;1.40;;;;;;;12.39;83.62;98848.19;5034169;28;20212;-84
2023/02/18 08:53:21;;;;;;;1.60;1.50;;;;;;;12.48;82.32;98847.59;5032791;28;20209;-85
2023/02/18 08:55:48;;;;;;;1.67;1.57;;;;;;;12.52;82.56;98844.63;5034381;28;20215;-85
2023/02/18 08:58:14;;;;;;;1.90;1.40;;;;;;;12.58;81.99;98846.03;5033831;28;20227;-86
2023/02/18 09:00:43;;;;;;;2.53;1.20;;;;;;;12.66;81.83;98841.09;5033481;28;20263;-84
2023/02/18 09:03:12;;;;;;;1.93;1.47;;;;;;;12.69;79.83;98835.56;5034189;28;20237;-83
2023/02/18 09:05:39;;;;;;;1.57;1.27;;;;;;;12.79;80.83;98847.28;5033529;28;20207;-86
2023/02/18 09:08:06;;;;;;;1.00;0.90;;;;;;;12.82;80.31;98836.44;5034360;28;20215;-85
2023/02/18 09:10:32;;;;;;;1.20;1.10;;;;;;;12.83;80.66;98840.81;5039238;28;20212;-87
2023/02/18 09:12:59;;;;;;;1.83;1.23;;;;;;;12.87;79.92;98835.19;5043123;28;20225;-84
2023/02/18 09:15:25;;;;;;;1.40;1.20;;;;;;;13.02;79.52;98838.66;5045058;28;20441;-85
2023/02/18 09:17:52;;;;;;;1.40;1.30;;;;;;;13.04;77.65;98831.44;5038574;28;20216;-85
2023/02/18 09:20:20;;;;;;;1.33;1.10;;;;;;;13.16;78.13;98834.13;5054474;28;20459;-84
2023/02/18 09:22:46;;;;;;;1.73;1.10;;;;;;;13.21;76.99;98823.16;5049704;28;20810;-80
2023/02/18 09:25:13;;;;;;;1.63;1.10;;;;;;;13.32;78.32;98837.41;5040817;28;20304;-81
2023/02/18 09:27:39;;;;;;;3.13;1.10;;;;;;;13.49;78.35;98828.25;5035230;28;20231;-89
2023/02/18 09:30:07;;;;;;;1.67;1.10;;;;;;;13.56;75.68;98813.63;5034307;28;20224;-86
2023/02/18 09:32:33;;;;;;;1.30;1.00;;;;;;;13.47;76.10;98811.59;5033186;28;20234;-85
2023/02/18 09:35:01;;;;;;;1.17;1.07;;;;;;;13.54;76.38;98811.06;5033402;28;20224;-86
2023/02/18 09:37:29;;;;;;;1.10;1.00;;;;;;;13.57;75.28;98805.50;5032599;28;20271;-85
2023/02/18 09:39:55;;;;;;;1.30;1.00;;;;;;;13.62;74.63;98798.06;5032991;28;20205;-86
2023/02/18 09:42:29;;;;;;;1.47;0.97;;;;;;;13.72;73.29;98795.59;5034146;28;20240;-85
2023/02/18 09:44:59;;;;;;;1.87;1.07;;;;;;;13.79;73.88;98800.38;5035026;28;20235;-86
2023/02/18 09:47:33;;;;;;;2.87;1.23;;;;;;;13.82;72.13;98778.88;5035204;28;20276;-84
2023/02/18 09:50:06;;;;;;;1.23;1.10;;;;;;;13.88;72.97;98786.41;5034027;28;20213;-87
2023/02/18 09:52:37;;;;;;;1.60;1.20;;;;;;;13.89;73.97;98795.25;5033209;28;20225;-76
2023/02/18 09:55:17;;;;;;;1.97;1.00;;;;;;;13.94;72.14;98793.13;5036460;28;20206;-85
2023/02/18 09:57:46;;;;;;;1.97;1.20;;;;;;;14.03;72.48;98795.97;5032529;28;20217;-81
2023/02/18 10:00:18;;;;;;;1.87;1.20;;;;;;;14.04;72.08;98794.13;5032958;28;20217;-84
2023/02/18 10:02:53;;;;;;;1.23;1.10;;;;;;;14.03;71.16;98787.13;5037773;28;20257;-83
2023/02/18 10:05:21;;;;;;;1.43;1.10;;;;;;;13.93;71.42;98791.44;5032903;28;20254;-87
2023/02/18 10:07:53;;;;;;;2.70;1.23;;;;;;;13.91;71.55;98790.66;5032424;28;20209;-86
2023/02/18 10:10:34;;;;;;;2.07;1.20;;;;;;;13.82;72.88;98813.44;5032420;28;20214;-86
2023/02/18 10:13:01;;;;;;;1.87;1.10;;;;;;;13.72;73.59;98824.84;5036332;28;20745;-84
2023/02/18 10:15:30;;;;;;;2.13;1.27;;;;;;;13.67;73.14;98822.50;5032490;28;20205;-83
2023/02/18 10:17:57;;;;;;;1.93;1.10;;;;;;;13.63;73.51;98820.19;5030778;28;20212;-83
2023/02/18 10:20:26;;;;;;;1.20;1.00;;;;;;;13.70;73.32;98816.13;5031190;28;20229;-83
2023/02/18 10:22:58;;;;;;;4.83;1.73;;;;;;;13.72;72.43;98820.38;5032915;28;20241;-84
2023/02/18 10:25:25;;;;;;;1.43;1.20;;;;;;;13.77;70.97;98812.06;5033104;28;20213;-85
2023/02/18 10:27:53;;;;;;;1.80;1.30;;;;;;;13.79;70.63;98804.84;5032178;28;20437;-85
2023/02/18 10:30:24;;;;;;;3.23;1.30;;;;;;;13.82;71.22;98825.88;5032447;28;20513;-85
2023/02/18 10:32:57;;;;;;;3.30;1.30;;;;;;;13.86;69.58;98811.41;5032488;28;20236;-81
2023/02/18 10:35:31;;;;;;;1.70;1.27;;;;;;;13.91;68.34;98794.19;5032662;28;20214;-83
2023/02/18 10:38:09;;;;;;;1.73;1.40;;;;;;;13.92;69.33;98790.56;5032230;28;20671;-81
2023/02/18 10:40:50;;;;;;;1.73;1.00;;;;;;;13.93;69.71;98797.56;5032109;28;20209;-80
2023/02/18 10:43:30;;;;;;;2.97;1.07;;;;;;;13.93;69.81;98796.75;5031390;28;20208;-81
2023/02/18 10:46:06;;;;;;;0.87;0.83;;;;;;;14.01;70.23;98799.69;5031557;28;20214;-81
2023/02/18 10:48:54;;;;;;;1.60;1.20;;;;;;;14.00;69.58;98790.84;5031922;28;20216;-82
2023/02/18 10:51:28;;;;;;;1.53;1.17;;;;;;;13.94;69.69;98793.13;5032207;28;20224;-86
2023/02/18 10:53:56;;;;;;;1.60;1.20;;;;;;;13.90;70.13;98791.63;5032474;28;20244;-91
2023/02/18 10:56:37;;;;;;;2.27;1.20;;;;;;;13.91;70.30;98782.69;5033731;28;20230;-86
2023/02/18 10:59:11;;;;;;;1.00;0.90;;;;;;;13.91;69.46;98782.69;5034043;28;20208;-91
2023/02/18 11:01:38;;;;;;;1.93;0.90;;;;;;;13.94;68.97;98787.81;5033581;28;20243;-91
2023/02/18 11:04:12;;;;;;;1.27;0.90;;;;;;;13.96;68.96;98783.22;5032944;28;20232;-89
2023/02/18 11:06:41;;;;;;;1.00;0.90;;;;;;;13.98;69.52;98773.31;5034000;28;20683;-88
2023/02/18 11:09:25;;;;;;;2.67;1.20;;;;;;;14.04;68.99;98780.84;5034606;28;20303;-92
2023/02/18 11:12:00;;;;;;;1.57;1.00;;;;;;;14.14;68.74;98773.91;5035307;28;20232;-91
2023/02/18 11:14:38;;;;;;;1.50;0.83;;;;;;;14.13;68.15;98769.56;5035015;28;20223;-86
2023/02/18 11:17:20;;;;;;;1.07;0.80;;;;;;;14.15;67.94;98764.97;5032941;28;20217;-91
2023/02/18 11:19:53;;;;;;;0.87;0.80;;;;;;;14.14;68.14;98769.44;5034003;28;20190;-91
2023/02/18 11:22:22;;;;;;;1.03;0.93;;;;;;;14.23;68.02;98765.31;5033102;28;20316;-90
2023/02/18 11:24:54;;;;;;;1.13;0.73;;;;;;;14.27;67.82;98769.41;5033277;28;20238;-90
2023/02/18 11:27:25;;;;;;;1.57;0.97;;;;;;;14.34;67.88;98766.19;5039161;28;20221;-88
2023/02/18 11:29:54;;;;;;;1.10;1.00;;;;;;;14.39;66.13;98736.59;5042973;28;20209;-87
2023/02/18 11:32:21;;;;;;;1.20;0.90;;;;;;;14.31;64.99;98736.31;5037647;28;20278;-83
2023/02/18 11:34:49;;;;;;;2.20;1.07;;;;;;;14.29;63.85;98719.66;5040362;28;20228;-85
2023/02/18 11:37:19;;;;;;;2.30;1.10;;;;;;;14.23;64.42;98730.75;5039094;28;20218;-86
2023/02/18 11:39:48;;;;;;;3.53;1.23;;;;;;;14.24;63.68;98722.63;5038073;28;20289;-86
2023/02/18 11:42:19;;;;;;;2.00;1.20;;;;;;;14.22;64.18;98719.25;5034171;28;20711;-85